Time,TemperatureF,DewpointF,PressureIn,WindDirection,WindDirectionDegrees,WindSpeedMPH,WindSpeedGustMPH,Humidity,HourlyPrecipIn,Conditions,Clouds,dailyrainin,SoftwareType,DateUTC
2013-02-17 00:05:00,29.1,20.0,29.69,NW,323,6.0,15.0,68,0.00,,,0.00,weatherlink.com 1.10,2013-02-17 05:05:00,
2013-02-17 00:20:00,28.8,20.0,29.68,NNW,337,4.0,14.0,69,0.00,,,0.00,weatherlink.com 1.10,2013-02-17 05:20:00,
2013-02-17 00:36:00,28.3,20.0,29.70,NW,326,5.0,12.0,72,0.00,,,0.00,weatherlink.com 1.10,2013-02-17 05:36:00,
2013-02-17 00:49:00,28.0,20.0,29.70,WNW,299,6.0,16.0,73,0.00,,,0.00,weatherlink.com 1.10,2013-02-17 05:49:00,
2013-02-17 01:05:00,27.3,21.0,29.69,NNW,346,10.0,18.0,76,0.00,,,0.00,weatherlink.com 1.10,2013-02-17 06:05:00,
2013-02-17 01:19:00,26.4,21.0,29.67,WNW,299,9.0,19.0,81,0.00,,,0.00,weatherlink.com 1.10,2013-02-17 06:19:00,
2013-02-17 01:34:00,25.5,22.0,29.65,North,8,7.0,15.0,86,0.00,,,0.00,weatherlink.com 1.10,2013-02-17 06:34:00,
2013-02-17 01:49:00,25.0,22.0,29.65,NNW,329,6.0,15.0,88,0.00,,,0.00,weatherlink.com 1.10,2013-02-17 06:49:00,
2013-02-17 02:05:00,24.7,22.0,29.66,NNE,12,7.0,16.0,88,0.00,,,0.00,weatherlink.com 1.10,2013-02-17 07:05:00,
2013-02-17 02:20:00,24.4,21.0,29.67,NW,323,3.0,15.0,87,0.00,,,0.00,weatherlink.com 1.10,2013-02-17 07:20:00,
2013-02-17 02:35:00,23.8,20.0,29.65,NW,304,15.0,16.0,86,0.00,,,0.00,weatherlink.com 1.10,2013-02-17 07:35:00,
2013-02-17 02:50:00,22.9,19.0,29.62,North,353,7.0,20.0,86,0.00,,,0.00,weatherlink.com 1.10,2013-02-17 07:50:00,
2013-02-17 03:05:00,22.3,19.0,29.61,North,7,7.0,16.0,88,0.00,,,0.00,weatherlink.com 1.10,2013-02-17 08:05:00,
2013-02-17 03:20:00,22.0,19.0,29.61,WNW,300,9.0,19.0,88,0.00,,,0.00,weatherlink.com 1.10,2013-02-17 08:20:00,
2013-02-17 03:35:00,21.8,19.0,29.61,NNW,336,5.0,19.0,87,0.00,,,0.00,weatherlink.com 1.10,2013-02-17 08:35:00,
2013-02-17 03:50:00,21.6,18.0,29.60,NW,321,9.0,16.0,87,0.00,,,0.00,weatherlink.com 1.10,2013-02-17 08:50:00,
2013-02-17 04:05:00,21.4,18.0,29.59,NNW,333,6.0,23.0,85,0.00,,,0.00,weatherlink.com 1.10,2013-02-17 09:05:00,
2013-02-17 04:20:00,21.3,18.0,29.60,NW,314,10.0,19.0,85,0.00,,,0.00,weatherlink.com 1.10,2013-02-17 09:20:00,
2013-02-17 04:35:00,20.9,17.0,29.60,NW,309,9.0,20.0,86,0.00,,,0.00,weatherlink.com 1.10,2013-02-17 09:35:00,
2013-02-17 04:50:00,20.4,17.0,29.60,NW,315,11.0,22.0,88,0.00,,,0.00,weatherlink.com 1.10,2013-02-17 09:50:00,
2013-02-17 05:05:00,20.2,18.0,29.58,NW,320,11.0,18.0,89,0.00,,,0.00,weatherlink.com 1.10,2013-02-17 10:05:00,
2013-02-17 05:20:00,20.0,18.0,29.57,NW,309,10.0,18.0,90,0.00,,,0.00,weatherlink.com 1.10,2013-02-17 10:20:00,
2013-02-17 05:35:00,19.9,18.0,29.56,WNW,302,8.0,21.0,91,0.00,,,0.00,weatherlink.com 1.10,2013-02-17 10:35:00,
2013-02-17 05:50:00,19.7,17.0,29.54,NW,313,12.0,19.0,90,0.00,,,0.00,weatherlink.com 1.10,2013-02-17 10:50:00,
2013-02-17 06:06:00,19.4,17.0,29.54,NW,309,11.0,23.0,89,0.00,,,0.00,weatherlink.com 1.10,2013-02-17 11:06:00,
2013-02-17 06:21:00,19.3,17.0,29.52,NNW,342,8.0,20.0,89,0.00,,,0.00,weatherlink.com 1.10,2013-02-17 11:21:00,
2013-02-17 06:36:00,18.9,16.0,29.52,WNW,288,9.0,22.0,89,0.00,,,0.00,weatherlink.com 1.10,2013-02-17 11:36:00,
2013-02-17 06:50:00,18.6,16.0,29.51,WNW,300,5.0,25.0,89,0.00,,,0.00,weatherlink.com 1.10,2013-02-17 11:50:00,
2013-02-17 07:05:00,18.4,16.0,29.50,WNW,298,15.0,26.0,90,0.00,,,0.00,weatherlink.com 1.10,2013-02-17 12:05:00,
2013-02-17 07:20:00,18.4,16.0,29.50,West,273,4.0,18.0,90,0.00,,,0.00,weatherlink.com 1.10,2013-02-17 12:20:00,
2013-02-17 07:36:00,18.2,16.0,29.50,NW,308,10.0,19.0,89,0.00,,,0.00,weatherlink.com 1.10,2013-02-17 12:36:00,
2013-02-17 07:51:00,18.1,15.0,29.49,WNW,291,8.0,21.0,89,0.00,,,0.00,weatherlink.com 1.10,2013-02-17 12:51:00,
2013-02-17 08:06:00,17.7,15.0,29.48,NW,308,14.0,26.0,89,0.00,,,0.00,weatherlink.com 1.10,2013-02-17 13:06:00,
2013-02-17 08:21:00,17.4,15.0,29.48,WNW,295,14.0,24.0,88,0.00,,,0.00,weatherlink.com 1.10,2013-02-17 13:21:00,
2013-02-17 08:36:00,17.3,14.0,29.47,WNW,293,8.0,22.0,88,0.00,,,0.00,weatherlink.com 1.10,2013-02-17 13:36:00,
2013-02-17 08:51:00,17.3,14.0,29.46,North,9,7.0,23.0,88,0.00,,,0.00,weatherlink.com 1.10,2013-02-17 13:51:00,
2013-02-17 09:06:00,17.4,14.0,29.45,North,359,11.0,21.0,87,0.00,,,0.00,weatherlink.com 1.10,2013-02-17 14:06:00,
2013-02-17 09:21:00,17.5,14.0,29.44,WNW,284,8.0,22.0,86,0.00,,,0.00,weatherlink.com 1.10,2013-02-17 14:21:00,
2013-02-17 09:36:00,17.8,14.0,29.44,NNW,346,21.0,26.0,84,0.00,,,0.00,weatherlink.com 1.10,2013-02-17 14:36:00,
2013-02-17 09:51:00,18.4,13.0,29.44,NNW,336,6.0,24.0,79,0.00,,,0.00,weatherlink.com 1.10,2013-02-17 14:51:00,
2013-02-17 10:06:00,18.8,13.0,29.44,NNW,329,7.0,23.0,78,0.00,,,0.00,weatherlink.com 1.10,2013-02-17 15:06:00,
2013-02-17 10:21:00,19.1,13.0,29.43,WNW,301,6.0,25.0,77,0.00,,,0.00,weatherlink.com 1.10,2013-02-17 15:21:00,
2013-02-17 10:36:00,19.9,11.0,29.43,NW,315,5.0,23.0,69,0.00,,,0.00,weatherlink.com 1.10,2013-02-17 15:36:00,
2013-02-17 10:51:00,21.0,9.0,29.43,West,275,8.0,22.0,61,0.00,,,0.00,weatherlink.com 1.10,2013-02-17 15:51:00,
2013-02-17 11:06:00,21.3,8.0,29.43,NW,314,23.0,28.0,56,0.00,,,0.00,weatherlink.com 1.10,2013-02-17 16:06:00,
2013-02-17 11:21:00,21.8,7.0,29.43,WNW,293,6.0,24.0,54,0.00,,,0.00,weatherlink.com 1.10,2013-02-17 16:21:00,
2013-02-17 11:36:00,21.8,7.0,29.43,NW,306,18.0,20.0,52,0.00,,,0.00,weatherlink.com 1.10,2013-02-17 16:36:00,
2013-02-17 11:51:00,22.0,7.0,29.43,WNW,289,7.0,23.0,52,0.00,,,0.00,weatherlink.com 1.10,2013-02-17 16:51:00,
2013-02-17 12:06:00,21.9,7.0,29.42,WNW,302,14.0,21.0,53,0.00,,,0.00,weatherlink.com 1.10,2013-02-17 17:06:00,
2013-02-17 12:21:00,21.7,6.0,29.43,WNW,291,10.0,26.0,52,0.00,,,0.00,weatherlink.com 1.10,2013-02-17 17:21:00,
2013-02-17 12:36:00,21.9,6.0,29.43,WNW,285,10.0,24.0,50,0.00,,,0.00,weatherlink.com 1.10,2013-02-17 17:36:00,
2013-02-17 12:51:00,21.5,5.0,29.43,NNW,332,9.0,23.0,49,0.00,,,0.00,weatherlink.com 1.10,2013-02-17 17:51:00,
2013-02-17 13:06:00,21.6,5.0,29.44,WSW,258,16.0,35.0,49,0.00,,,0.00,weatherlink.com 1.10,2013-02-17 18:06:00,
2013-02-17 13:21:00,21.7,5.0,29.45,WNW,283,9.0,28.0,49,0.00,,,0.00,weatherlink.com 1.10,2013-02-17 18:21:00,
2013-02-17 13:36:00,21.9,4.0,29.45,WNW,300,16.0,24.0,47,0.00,,,0.00,weatherlink.com 1.10,2013-02-17 18:36:00,
2013-02-17 13:51:00,22.0,4.0,29.46,WNW,284,10.0,35.0,46,0.00,,,0.00,weatherlink.com 1.10,2013-02-17 18:51:00,
2013-02-17 14:06:00,22.0,3.0,29.46,WNW,288,15.0,36.0,44,0.00,,,0.00,weatherlink.com 1.10,2013-02-17 19:06:00,
2013-02-17 14:21:00,22.5,4.0,29.47,West,268,9.0,27.0,44,0.00,,,0.00,weatherlink.com 1.10,2013-02-17 19:21:00,
2013-02-17 14:36:00,22.7,3.0,29.47,WNW,298,18.0,32.0,43,0.00,,,0.00,weatherlink.com 1.10,2013-02-17 19:36:00,
2013-02-17 14:52:00,22.7,3.0,29.48,NW,304,18.0,46.0,42,0.00,,,0.00,weatherlink.com 1.10,2013-02-17 19:52:00,
2013-02-17 15:07:00,23.1,3.0,29.48,West,275,8.0,25.0,42,0.00,,,0.00,weatherlink.com 1.10,2013-02-17 20:07:00,
2013-02-17 15:22:00,23.3,3.0,29.49,WNW,284,8.0,32.0,41,0.00,,,0.00,weatherlink.com 1.10,2013-02-17 20:22:00,
2013-02-17 15:39:00,23.5,2.0,29.50,West,277,10.0,23.0,39,0.00,,,0.00,weatherlink.com 1.10,2013-02-17 20:39:00,
2013-02-17 15:51:00,23.7,3.0,29.50,WNW,290,9.0,26.0,40,0.00,,,0.00,weatherlink.com 1.10,2013-02-17 20:51:00,
2013-02-17 16:06:00,23.9,4.0,29.51,WNW,287,15.0,24.0,42,0.00,,,0.00,weatherlink.com 1.10,2013-02-17 21:06:00,
2013-02-17 16:21:00,24.1,3.0,29.51,West,259,6.0,27.0,40,0.00,,,0.00,weatherlink.com 1.10,2013-02-17 21:21:00,
2013-02-17 16:36:00,24.2,2.0,29.52,WNW,300,12.0,22.0,39,0.00,,,0.00,weatherlink.com 1.10,2013-02-17 21:36:00,
2013-02-17 16:51:00,24.3,1.0,29.53,WNW,287,16.0,32.0,37,0.00,,,0.00,weatherlink.com 1.10,2013-02-17 21:51:00,
2013-02-17 17:06:00,24.3,1.0,29.54,North,359,11.0,24.0,37,0.00,,,0.00,weatherlink.com 1.10,2013-02-17 22:06:00,
2013-02-17 17:21:00,24.4,0.0,29.55,NW,311,6.0,32.0,35,0.00,,,0.00,weatherlink.com 1.10,2013-02-17 22:21:00,
2013-02-17 17:36:00,24.3,0.0,29.56,WNW,283,12.0,26.0,35,0.00,,,0.00,weatherlink.com 1.10,2013-02-17 22:36:00,
2013-02-17 17:52:00,24.3,0.0,29.57,WNW,290,5.0,26.0,35,0.00,,,0.00,weatherlink.com 1.10,2013-02-17 22:52:00,
2013-02-17 18:07:00,24.2,0.0,29.57,WNW,298,6.0,22.0,35,0.00,,,0.00,weatherlink.com 1.10,2013-02-17 23:07:00,
2013-02-17 18:21:00,24.2,-1.0,29.57,NW,311,8.0,28.0,34,0.00,,,0.00,weatherlink.com 1.10,2013-02-17 23:21:00,
2013-02-17 18:36:00,23.9,-1.0,29.58,WNW,298,14.0,29.0,34,0.00,,,0.00,weatherlink.com 1.10,2013-02-17 23:36:00,
2013-02-17 18:52:00,23.8,0.0,29.58,West,281,8.0,21.0,35,0.00,,,0.00,weatherlink.com 1.10,2013-02-17 23:52:00,
2013-02-17 19:07:00,23.6,-1.0,29.59,WNW,287,5.0,30.0,34,0.00,,,0.00,weatherlink.com 1.10,2013-02-18 00:07:00,
2013-02-17 19:22:00,22.3,1.0,29.59,WNW,284,3.0,20.0,40,0.00,,,0.00,weatherlink.com 1.10,2013-02-18 00:22:00,
2013-02-17 19:37:00,21.9,1.0,29.60,West,281,6.0,20.0,40,0.00,,,0.00,weatherlink.com 1.10,2013-02-18 00:37:00,
2013-02-17 19:52:00,21.6,1.0,29.60,West,264,20.0,23.0,40,0.00,,,0.00,weatherlink.com 1.10,2013-02-18 00:52:00,
2013-02-17 20:07:00,21.0,2.0,29.61,SSW,206,4.0,21.0,43,0.00,,,0.00,weatherlink.com 1.10,2013-02-18 01:07:00,
2013-02-17 20:22:00,19.9,2.0,29.62,West,267,4.0,21.0,46,0.00,,,0.00,weatherlink.com 1.10,2013-02-18 01:22:00,
2013-02-17 20:37:00,19.3,2.0,29.63,WNW,290,12.0,21.0,47,0.00,,,0.00,weatherlink.com 1.10,2013-02-18 01:37:00,
2013-02-17 20:52:00,18.8,2.0,29.64,West,278,11.0,22.0,48,0.00,,,0.00,weatherlink.com 1.10,2013-02-18 01:52:00,
2013-02-17 21:07:00,18.4,2.0,29.64,West,263,7.0,20.0,48,0.00,,,0.00,weatherlink.com 1.10,2013-02-18 02:07:00,
2013-02-17 21:22:00,18.2,1.0,29.65,West,274,8.0,19.0,48,0.00,,,0.00,weatherlink.com 1.10,2013-02-18 02:22:00,
2013-02-17 21:37:00,18.0,1.0,29.66,NNW,340,2.0,19.0,48,0.00,,,0.00,weatherlink.com 1.10,2013-02-18 02:37:00,
2013-02-17 21:52:00,17.6,1.0,29.67,WNW,284,11.0,24.0,48,0.00,,,0.00,weatherlink.com 1.10,2013-02-18 02:52:00,
2013-02-17 22:08:00,17.2,1.0,29.68,WNW,302,6.0,21.0,48,0.00,,,0.00,weatherlink.com 1.10,2013-02-18 03:08:00,
2013-02-17 22:23:00,16.9,0.0,29.69,WNW,288,10.0,19.0,48,0.00,,,0.00,weatherlink.com 1.10,2013-02-18 03:23:00,
2013-02-17 22:38:00,16.7,1.0,29.70,NNW,332,5.0,15.0,49,0.00,,,0.00,weatherlink.com 1.10,2013-02-18 03:38:00,
2013-02-17 22:53:00,16.4,0.0,29.70,NW,320,10.0,30.0,48,0.00,,,0.00,weatherlink.com 1.10,2013-02-18 03:53:00,
2013-02-17 23:08:00,16.1,-1.0,29.71,WNW,290,3.0,26.0,48,0.00,,,0.00,weatherlink.com 1.10,2013-02-18 04:08:00,
2013-02-17 23:23:00,15.9,-1.0,29.72,NW,305,7.0,35.0,48,0.00,,,0.00,weatherlink.com 1.10,2013-02-18 04:23:00,
2013-02-17 23:38:00,15.6,-1.0,29.72,NW,304,8.0,27.0,49,0.00,,,0.00,weatherlink.com 1.10,2013-02-18 04:38:00,